createdAt,value
2017-06-16T00:00:02.985Z,18.95
2017-06-16T00:01:04.421Z,18.83
2017-06-16T00:02:06.764Z,18.94
2017-06-16T00:03:08.981Z,18.87
2017-06-16T00:04:11.017Z,18.79
2017-06-16T00:05:13.182Z,18.74
2017-06-16T00:06:14.618Z,18.80
2017-06-16T00:07:16.800Z,18.82
2017-06-16T00:08:18.980Z,18.86
2017-06-16T00:09:20.983Z,18.90
2017-06-16T00:10:24.402Z,18.86
2017-06-16T00:11:26.546Z,18.84
2017-06-16T00:12:28.604Z,18.90
2017-06-16T00:13:30.712Z,18.77
2017-06-16T00:14:33.364Z,18.79
2017-06-16T00:15:35.377Z,18.68
2017-06-16T00:16:37.240Z,18.68
2017-06-16T00:17:39.637Z,18.61
2017-06-16T00:18:41.078Z,18.62
2017-06-16T00:19:43.482Z,18.77
2017-06-16T00:20:45.728Z,18.80
2017-06-16T00:21:47.161Z,18.82
2017-06-16T00:22:49.207Z,18.84
2017-06-16T00:23:51.204Z,18.73
2017-06-16T00:24:52.637Z,18.83
2017-06-16T00:25:54.069Z,18.74
2017-06-16T00:26:55.501Z,18.67
2017-06-16T00:27:56.933Z,18.59
2017-06-16T00:28:58.401Z,18.65
2017-06-16T00:29:59.791Z,18.79
2017-06-16T00:31:01.229Z,18.82
2017-06-16T00:32:02.657Z,18.98
2017-06-16T00:33:04.114Z,18.64
2017-06-16T00:34:05.524Z,18.59
2017-06-16T00:35:06.953Z,18.65
2017-06-16T00:36:08.385Z,18.47
2017-06-16T00:37:09.812Z,18.52
2017-06-16T00:38:11.238Z,18.46
2017-06-16T00:39:12.663Z,18.49
2017-06-16T00:40:14.092Z,18.54
2017-06-16T00:41:15.524Z,18.49
2017-06-16T00:42:16.955Z,18.40
2017-06-16T00:43:18.391Z,18.52
2017-06-16T00:44:19.833Z,18.39
2017-06-16T00:45:21.265Z,18.31
2017-06-16T00:46:22.698Z,18.34
2017-06-16T00:47:24.130Z,18.34
2017-06-16T00:48:25.561Z,18.36
2017-06-16T00:49:26.991Z,18.47
2017-06-16T00:50:28.414Z,18.43
2017-06-16T00:51:29.844Z,18.57
2017-06-16T00:52:31.268Z,18.55
2017-06-16T00:53:32.699Z,18.54
2017-06-16T00:54:34.128Z,18.46
2017-06-16T00:55:35.552Z,18.49
2017-06-16T00:56:36.979Z,18.46
2017-06-16T00:57:38.410Z,18.50
2017-06-16T00:58:39.847Z,18.40
2017-06-16T00:59:41.278Z,18.44
2017-06-16T01:00:42.709Z,18.46
2017-06-16T01:01:44.133Z,18.34
2017-06-16T01:02:45.559Z,18.40
2017-06-16T01:03:46.997Z,18.33
2017-06-16T01:04:48.423Z,18.44
2017-06-16T01:05:49.846Z,18.43
2017-06-16T01:06:51.275Z,18.36
2017-06-16T01:07:52.714Z,18.33
2017-06-16T01:08:54.148Z,18.34
2017-06-16T01:09:55.582Z,18.18
2017-06-16T01:10:57.009Z,18.27
2017-06-16T01:11:58.442Z,18.33
2017-06-16T01:12:59.876Z,18.34
2017-06-16T01:14:01.311Z,18.29
2017-06-16T01:15:02.737Z,18.21
2017-06-16T01:16:04.177Z,18.09
2017-06-16T01:17:05.600Z,18.09
2017-06-16T01:18:07.039Z,18.19
2017-06-16T01:19:08.466Z,18.22
2017-06-16T01:20:09.893Z,18.39
2017-06-16T01:21:11.327Z,18.33
2017-06-16T01:22:12.755Z,18.39
2017-06-16T01:23:14.187Z,18.37
2017-06-16T01:24:15.615Z,18.13
2017-06-16T01:25:17.045Z,18.09
2017-06-16T01:26:18.476Z,18.02
2017-06-16T01:27:19.905Z,18.27
2017-06-16T01:28:21.360Z,18.37
2017-06-16T01:29:22.796Z,18.24
2017-06-16T01:30:24.223Z,18.37
2017-06-16T01:31:25.665Z,18.29
2017-06-16T01:32:27.082Z,18.34
2017-06-16T01:33:28.509Z,18.39
2017-06-16T01:34:29.944Z,18.34
2017-06-16T01:35:31.494Z,18.36
2017-06-16T01:36:32.929Z,18.31
2017-06-16T01:37:34.359Z,18.25
2017-06-16T01:38:35.794Z,18.24
2017-06-16T01:39:37.229Z,18.21
2017-06-16T01:40:38.657Z,18.28
2017-06-16T01:41:40.086Z,18.24
2017-06-16T01:42:41.519Z,18.31
2017-06-16T01:43:42.954Z,18.36
2017-06-16T01:44:44.387Z,18.39
2017-06-16T01:45:45.817Z,18.29
2017-06-16T01:46:47.261Z,18.17
2017-06-16T01:47:48.684Z,18.13
2017-06-16T01:48:50.116Z,18.19
2017-06-16T01:49:51.549Z,18.24
2017-06-16T01:50:52.979Z,18.21
2017-06-16T01:51:54.409Z,18.19
2017-06-16T01:52:55.832Z,18.17
2017-06-16T01:53:57.261Z,18.21
2017-06-16T01:54:58.684Z,18.19
2017-06-16T01:56:00.119Z,18.12
2017-06-16T01:57:01.551Z,18.15
2017-06-16T01:58:02.980Z,18.25
2017-06-16T01:59:04.405Z,18.36
2017-06-16T02:00:05.827Z,18.31
2017-06-16T02:01:07.259Z,18.18
2017-06-16T02:02:08.679Z,18.18
2017-06-16T02:03:10.106Z,18.25
2017-06-16T02:04:11.543Z,18.06
2017-06-16T02:05:12.969Z,18.09
2017-06-16T02:06:14.410Z,18.13
2017-06-16T02:07:15.834Z,18.19
2017-06-16T02:08:17.264Z,18.22
2017-06-16T02:09:18.689Z,18.12
2017-06-16T02:10:20.115Z,18.24
2017-06-16T02:11:21.551Z,18.17
2017-06-16T02:12:22.976Z,18.19
2017-06-16T02:13:24.400Z,18.19
2017-06-16T02:14:25.825Z,18.36
2017-06-16T02:15:27.259Z,18.34
2017-06-16T02:16:28.685Z,18.33
2017-06-16T02:17:30.120Z,18.24
2017-06-16T02:18:31.544Z,18.25
2017-06-16T02:19:32.970Z,18.24
2017-06-16T02:20:34.398Z,18.22
2017-06-16T02:21:35.825Z,18.22
2017-06-16T02:22:37.255Z,18.24
2017-06-16T02:23:38.679Z,18.18
2017-06-16T02:24:40.106Z,18.03
2017-06-16T02:25:41.529Z,18.17
2017-06-16T02:26:42.954Z,18.06
2017-06-16T02:27:44.386Z,18.13
2017-06-16T02:28:45.817Z,18.06
2017-06-16T02:29:47.239Z,18.07
2017-06-16T02:30:48.673Z,18.19
2017-06-16T02:31:50.100Z,18.18
2017-06-16T02:32:51.521Z,18.17
2017-06-16T02:33:52.948Z,18.10
2017-06-16T02:34:54.386Z,18.04
2017-06-16T02:35:55.821Z,18.12
2017-06-16T02:36:57.247Z,18.17
2017-06-16T02:37:58.682Z,18.02
2017-06-16T02:39:00.114Z,18.19
2017-06-16T02:40:01.540Z,18.18
2017-06-16T02:41:02.969Z,18.12
2017-06-16T02:42:04.392Z,18.03
2017-06-16T02:43:05.825Z,18.07
2017-06-16T02:44:07.268Z,17.92
2017-06-16T02:45:08.696Z,17.87
2017-06-16T02:46:10.129Z,17.87
2017-06-16T02:47:11.600Z,18.02
2017-06-16T02:48:13.031Z,17.99
2017-06-16T02:49:14.453Z,17.81
2017-06-16T02:50:15.883Z,17.73
2017-06-16T02:51:17.398Z,17.74
2017-06-16T02:52:18.835Z,17.76
2017-06-16T02:53:20.257Z,17.87
2017-06-16T02:54:21.685Z,17.73
2017-06-16T02:55:23.114Z,17.69
2017-06-16T02:56:24.548Z,17.78
2017-06-16T02:57:25.985Z,17.82
2017-06-16T02:58:27.407Z,17.74
2017-06-16T02:59:28.841Z,17.79
2017-06-16T03:00:30.269Z,17.73
2017-06-16T03:01:31.708Z,17.74
2017-06-16T03:02:33.140Z,17.74
2017-06-16T03:03:34.563Z,17.64
2017-06-16T03:04:35.988Z,17.71
2017-06-16T03:05:37.420Z,17.74
2017-06-16T03:06:38.852Z,17.71
2017-06-16T03:07:40.279Z,17.70
2017-06-16T03:08:41.707Z,17.69
2017-06-16T03:09:43.148Z,17.66
2017-06-16T03:10:44.576Z,17.76
2017-06-16T03:11:46.012Z,17.69
2017-06-16T03:12:47.452Z,17.71
2017-06-16T03:13:48.873Z,17.70
2017-06-16T03:14:50.300Z,17.70
2017-06-16T03:15:51.728Z,17.74
2017-06-16T03:16:53.163Z,17.73
2017-06-16T03:17:54.596Z,17.69
2017-06-16T03:18:56.021Z,17.69
2017-06-16T03:19:57.453Z,17.70
2017-06-16T03:20:58.918Z,17.73
2017-06-16T03:22:00.317Z,17.76
2017-06-16T03:23:01.743Z,17.70
2017-06-16T03:24:03.177Z,17.73
2017-06-16T03:25:04.597Z,17.70
2017-06-16T03:26:06.025Z,17.64
2017-06-16T03:27:07.459Z,17.66
2017-06-16T03:28:08.888Z,17.59
2017-06-16T03:29:10.316Z,17.71
2017-06-16T03:30:11.743Z,17.53
2017-06-16T03:31:13.172Z,17.51
2017-06-16T03:32:14.610Z,17.57
2017-06-16T03:33:16.034Z,17.62
2017-06-16T03:34:17.466Z,17.63
2017-06-16T03:35:18.891Z,17.48
2017-06-16T03:36:20.319Z,17.50
2017-06-16T03:37:21.755Z,17.54
2017-06-16T03:38:23.192Z,17.54
2017-06-16T03:39:24.627Z,17.44
2017-06-16T03:40:26.053Z,17.41
2017-06-16T03:41:27.485Z,17.32
2017-06-16T03:42:28.918Z,17.32
2017-06-16T03:43:30.348Z,17.44
2017-06-16T03:44:31.776Z,17.33
2017-06-16T03:45:33.205Z,17.33
2017-06-16T03:46:34.634Z,17.35
2017-06-16T03:47:36.071Z,17.32
2017-06-16T03:48:37.511Z,17.47
2017-06-16T03:49:38.940Z,17.30
2017-06-16T03:50:40.375Z,17.32
2017-06-16T03:51:41.802Z,17.41
2017-06-16T03:52:43.229Z,17.41
2017-06-16T03:53:44.665Z,17.33
2017-06-16T03:54:46.093Z,17.36
2017-06-16T03:55:47.519Z,17.48
2017-06-16T03:56:48.944Z,17.40
2017-06-16T03:57:50.377Z,17.43
2017-06-16T03:58:51.814Z,17.43
2017-06-16T03:59:53.239Z,17.50
2017-06-16T04:00:54.678Z,17.32
2017-06-16T04:01:56.106Z,17.40
2017-06-16T04:02:57.540Z,17.44
2017-06-16T04:03:58.973Z,17.43
2017-06-16T04:05:00.399Z,17.47
2017-06-16T04:06:01.827Z,17.54
2017-06-16T04:07:03.261Z,17.59
2017-06-16T04:08:04.701Z,17.55
2017-06-16T04:09:06.135Z,17.64
2017-06-16T04:10:07.572Z,17.54
2017-06-16T04:11:09.017Z,17.48
2017-06-16T04:12:10.447Z,17.50
2017-06-16T04:13:11.889Z,17.51
2017-06-16T04:14:13.319Z,17.54
2017-06-16T04:15:14.748Z,17.32
2017-06-16T04:16:16.185Z,17.48
2017-06-16T04:17:17.620Z,17.46
2017-06-16T04:18:19.114Z,17.46
2017-06-16T04:19:20.548Z,17.36
2017-06-16T04:20:21.977Z,17.36
2017-06-16T04:21:23.413Z,17.36
2017-06-16T04:22:24.843Z,17.46
2017-06-16T04:23:26.276Z,17.51
2017-06-16T04:24:27.702Z,17.35
2017-06-16T04:25:29.137Z,17.32
2017-06-16T04:26:30.566Z,17.36
2017-06-16T04:27:32.000Z,17.44
2017-06-16T04:28:33.426Z,17.36
2017-06-16T04:29:34.859Z,17.40
2017-06-16T04:30:36.293Z,17.50
2017-06-16T04:31:37.727Z,17.43
2017-06-16T04:32:39.161Z,17.26
2017-06-16T04:33:40.591Z,17.35
2017-06-16T04:34:42.014Z,17.50
2017-06-16T04:35:43.450Z,17.41
2017-06-16T04:36:44.882Z,17.54
2017-06-16T04:37:46.314Z,17.62
2017-06-16T04:38:47.748Z,17.59
2017-06-16T04:39:49.174Z,17.59
2017-06-16T04:40:50.607Z,17.66
2017-06-16T04:41:52.035Z,17.51
2017-06-16T04:42:53.469Z,17.38
2017-06-16T04:43:54.901Z,17.46
2017-06-16T04:44:56.330Z,17.35
2017-06-16T04:45:57.756Z,17.44
2017-06-16T04:46:59.190Z,17.38
2017-06-16T04:48:00.624Z,17.32
2017-06-16T04:49:02.062Z,17.32
2017-06-16T04:50:03.490Z,17.23
2017-06-16T04:51:04.916Z,17.18
2017-06-16T04:52:06.349Z,17.22
2017-06-16T04:53:07.787Z,17.36
2017-06-16T04:54:09.221Z,17.32
2017-06-16T04:55:10.646Z,17.35
2017-06-16T04:56:12.074Z,17.51
2017-06-16T04:57:13.507Z,17.54
2017-06-16T04:58:14.951Z,17.38
2017-06-16T04:59:16.381Z,17.22
2017-06-16T05:00:17.814Z,17.32
2017-06-16T05:01:19.242Z,17.33
2017-06-16T05:02:20.680Z,17.46
2017-06-16T05:03:22.106Z,17.44
2017-06-16T05:04:23.537Z,17.20
2017-06-16T05:05:24.966Z,17.46
2017-06-16T05:06:26.389Z,17.47
2017-06-16T05:07:27.820Z,17.44
2017-06-16T05:08:29.254Z,17.30
2017-06-16T05:09:30.684Z,17.43
2017-06-16T05:10:32.110Z,17.36
2017-06-16T05:11:33.565Z,17.44
2017-06-16T05:12:34.990Z,17.64
2017-06-16T05:13:36.416Z,17.57
2017-06-16T05:14:37.847Z,17.55
2017-06-16T05:15:39.273Z,17.57
2017-06-16T05:16:40.706Z,17.44
2017-06-16T05:17:42.138Z,17.43
2017-06-16T05:18:43.580Z,17.62
2017-06-16T05:19:45.008Z,17.69
2017-06-16T05:20:46.442Z,17.69
2017-06-16T05:21:47.880Z,17.57
2017-06-16T05:22:49.305Z,17.44
2017-06-16T05:23:50.740Z,17.64
2017-06-16T05:24:52.835Z,17.59
2017-06-16T05:25:54.272Z,17.59
2017-06-16T05:26:55.710Z,17.53
2017-06-16T05:27:57.148Z,17.43
2017-06-16T05:28:58.575Z,17.41
2017-06-16T05:30:00.010Z,17.62
2017-06-16T05:31:01.438Z,17.62
2017-06-16T05:32:02.870Z,17.74
2017-06-16T05:33:04.298Z,17.64
2017-06-16T05:34:05.729Z,17.64
2017-06-16T05:35:07.159Z,17.55
2017-06-16T05:36:08.589Z,17.66
2017-06-16T05:37:10.015Z,17.70
2017-06-16T05:38:11.442Z,17.70
2017-06-16T05:39:12.886Z,17.74
2017-06-16T05:40:14.306Z,17.81
2017-06-16T05:41:15.737Z,17.64
2017-06-16T05:42:17.185Z,17.76
2017-06-16T05:43:18.624Z,17.73
2017-06-16T05:44:20.057Z,17.76
2017-06-16T05:45:21.492Z,17.87
2017-06-16T05:46:22.919Z,17.85
2017-06-16T05:47:24.351Z,17.85
2017-06-16T05:48:25.779Z,17.81
2017-06-16T05:49:27.221Z,17.88
2017-06-16T05:50:28.649Z,17.99
2017-06-16T05:51:30.078Z,17.99
2017-06-16T05:52:31.506Z,18.03
2017-06-16T05:53:32.945Z,17.92
2017-06-16T05:54:34.380Z,18.02
2017-06-16T05:55:35.804Z,18.04
2017-06-16T05:56:37.237Z,18.03
2017-06-16T05:57:38.667Z,18.06
2017-06-16T05:58:40.102Z,18.04
2017-06-16T05:59:41.530Z,18.15
2017-06-16T06:00:42.952Z,18.22
2017-06-16T06:01:44.393Z,18.15
2017-06-16T06:02:45.815Z,18.19
2017-06-16T06:03:47.254Z,18.18
2017-06-16T06:04:48.692Z,18.21
2017-06-16T06:05:50.119Z,18.19
2017-06-16T06:06:51.560Z,18.29
2017-06-16T06:07:52.986Z,18.37
2017-06-16T06:08:54.415Z,18.42
2017-06-16T06:09:55.847Z,18.37
2017-06-16T06:10:57.275Z,18.34
2017-06-16T06:11:58.708Z,18.44
2017-06-16T06:13:00.136Z,18.49
2017-06-16T06:14:01.569Z,18.54
2017-06-16T06:15:02.993Z,18.49
2017-06-16T06:16:04.432Z,18.43
2017-06-16T06:17:05.857Z,18.54
2017-06-16T06:18:07.287Z,18.47
2017-06-16T06:19:08.725Z,18.46
2017-06-16T06:20:10.157Z,18.47
2017-06-16T06:21:11.588Z,18.46
2017-06-16T06:22:13.020Z,18.44
2017-06-16T06:23:14.448Z,18.40
2017-06-16T06:24:15.888Z,18.37
2017-06-16T06:25:17.314Z,18.40
2017-06-16T06:26:18.750Z,18.40
2017-06-16T06:27:20.177Z,18.46
2017-06-16T06:28:21.608Z,18.46
2017-06-16T06:29:23.048Z,18.55
2017-06-16T06:30:24.477Z,18.61
2017-06-16T06:31:25.955Z,18.65
2017-06-16T06:32:27.393Z,18.64
2017-06-16T06:33:28.818Z,18.54
2017-06-16T06:34:30.255Z,18.55
2017-06-16T06:35:31.699Z,18.47
2017-06-16T06:36:33.131Z,18.44
2017-06-16T06:37:34.569Z,18.44
2017-06-16T06:38:35.996Z,18.46
2017-06-16T06:39:37.502Z,18.50
2017-06-16T06:40:38.931Z,18.55
2017-06-16T06:41:40.363Z,18.54
2017-06-16T06:42:41.790Z,18.39
2017-06-16T06:43:43.219Z,18.34
2017-06-16T06:44:44.651Z,18.42
2017-06-16T06:45:46.082Z,18.46
2017-06-16T06:46:47.510Z,18.55
2017-06-16T06:47:48.949Z,18.67
2017-06-16T06:48:50.386Z,18.62
2017-06-16T06:49:51.865Z,18.72
2017-06-16T06:50:53.304Z,18.87
2017-06-16T06:51:54.730Z,18.82
2017-06-16T06:52:56.158Z,18.97
2017-06-16T06:53:57.594Z,18.92
2017-06-16T06:54:59.066Z,19.02
2017-06-16T06:56:00.499Z,18.97
2017-06-16T06:57:01.960Z,19.10
2017-06-16T06:58:03.447Z,18.99
2017-06-16T06:59:04.870Z,18.97
2017-06-16T07:00:06.317Z,18.82
2017-06-16T07:01:07.774Z,18.64
2017-06-16T07:02:09.208Z,18.70
2017-06-16T07:03:10.643Z,18.57
2017-06-16T07:04:12.073Z,18.55
2017-06-16T07:05:13.512Z,18.44
2017-06-16T07:06:14.950Z,18.52
2017-06-16T07:07:16.376Z,18.52
2017-06-16T07:08:17.814Z,18.64
2017-06-16T07:09:19.250Z,18.80
2017-06-16T07:10:20.687Z,18.86
2017-06-16T07:11:22.130Z,18.82
2017-06-16T07:12:23.570Z,18.76
2017-06-16T07:13:25.008Z,18.68
2017-06-16T07:14:26.441Z,18.65
2017-06-16T07:15:27.892Z,18.64
2017-06-16T07:16:29.344Z,18.67
2017-06-16T07:17:30.773Z,18.61
2017-06-16T07:18:32.200Z,18.68
2017-06-16T07:19:33.628Z,18.58
2017-06-16T07:20:35.068Z,18.62
2017-06-16T07:21:36.499Z,18.82
2017-06-16T07:22:37.928Z,18.86
2017-06-16T07:23:39.359Z,18.86
2017-06-16T07:24:40.800Z,18.87
2017-06-16T07:25:42.235Z,18.73
2017-06-16T07:26:43.663Z,18.83
2017-06-16T07:27:45.095Z,18.74
2017-06-16T07:28:46.530Z,18.73
2017-06-16T07:29:47.958Z,18.70
2017-06-16T07:30:49.405Z,18.91
2017-06-16T07:31:50.837Z,18.91
2017-06-16T07:32:52.273Z,18.91
2017-06-16T07:33:53.706Z,18.91
2017-06-16T07:34:55.139Z,18.94
2017-06-16T07:35:56.580Z,18.80
2017-06-16T07:36:58.009Z,18.73
2017-06-16T07:37:59.448Z,18.65
2017-06-16T07:39:00.880Z,18.74
2017-06-16T07:40:02.314Z,18.58
2017-06-16T07:41:03.740Z,18.52
2017-06-16T07:42:05.169Z,18.57
2017-06-16T07:43:06.610Z,18.19
2017-06-16T07:44:08.051Z,18.24
2017-06-16T07:45:09.478Z,18.39
2017-06-16T07:46:10.917Z,18.62
2017-06-16T07:47:12.349Z,18.70
2017-06-16T07:48:13.785Z,18.47
2017-06-16T07:49:15.216Z,18.55
2017-06-16T07:50:16.650Z,18.61
2017-06-16T07:51:18.081Z,18.44
2017-06-16T07:52:19.517Z,18.55
2017-06-16T07:53:20.952Z,18.47
2017-06-16T07:54:22.381Z,18.55
2017-06-16T07:55:23.812Z,18.64
2017-06-16T07:56:25.252Z,18.76
2017-06-16T07:57:26.681Z,18.46
2017-06-16T07:58:28.114Z,18.46
2017-06-16T07:59:29.541Z,18.62
2017-06-16T08:00:30.975Z,18.62
2017-06-16T08:01:32.413Z,18.79
2017-06-16T08:02:33.850Z,19.02
2017-06-16T08:03:35.283Z,19.02
2017-06-16T08:04:36.717Z,18.95
2017-06-16T08:05:38.142Z,19.17
2017-06-16T08:06:39.570Z,18.95
2017-06-16T08:07:41.004Z,19.28
2017-06-16T08:08:42.439Z,19.13
2017-06-16T08:09:43.872Z,19.18
2017-06-16T08:10:45.309Z,19.05
2017-06-16T08:11:46.737Z,18.98
2017-06-16T08:12:48.166Z,18.95
2017-06-16T08:13:49.594Z,19.08
2017-06-16T08:14:51.029Z,19.01
2017-06-16T08:15:52.469Z,19.10
2017-06-16T08:16:53.901Z,19.29
2017-06-16T08:17:55.335Z,19.42
2017-06-16T08:18:56.771Z,19.43
2017-06-16T08:19:58.196Z,19.47
2017-06-16T08:20:59.633Z,19.73
2017-06-16T08:22:01.063Z,19.84
2017-06-16T08:23:02.495Z,19.73
2017-06-16T08:24:03.923Z,19.55
2017-06-16T08:25:05.360Z,19.54
2017-06-16T08:26:06.793Z,19.31
2017-06-16T08:27:08.220Z,19.28
2017-06-16T08:28:09.657Z,19.23
2017-06-16T08:29:11.091Z,19.20
2017-06-16T08:30:12.522Z,19.05
2017-06-16T08:31:13.954Z,19.13
2017-06-16T08:32:15.389Z,19.25
2017-06-16T08:33:16.816Z,19.28
2017-06-16T08:34:18.254Z,19.24
2017-06-16T08:35:19.685Z,19.29
2017-06-16T08:36:21.123Z,19.51
2017-06-16T08:37:22.553Z,19.65
2017-06-16T08:38:24.580Z,19.57
2017-06-16T08:39:26.015Z,19.69
2017-06-16T08:40:27.447Z,19.60
2017-06-16T08:41:28.885Z,19.65
2017-06-16T08:42:30.321Z,19.60
2017-06-16T08:43:31.770Z,19.57
2017-06-16T08:44:33.200Z,19.50
2017-06-16T08:45:34.643Z,19.46
2017-06-16T08:46:36.324Z,19.60
2017-06-16T08:47:37.832Z,19.72
2017-06-16T08:48:39.263Z,19.84
2017-06-16T08:49:41.437Z,19.91
2017-06-16T08:50:42.879Z,20.23
2017-06-16T08:51:44.347Z,19.90
2017-06-16T08:52:45.783Z,19.87
2017-06-16T08:53:47.242Z,20.09
2017-06-16T08:54:48.669Z,20.25
2017-06-16T08:55:50.097Z,20.43
2017-06-16T08:56:51.539Z,20.27
2017-06-16T08:57:52.989Z,20.25
2017-06-16T08:58:54.426Z,20.25
2017-06-16T08:59:55.855Z,20.05
2017-06-16T09:00:57.294Z,19.87
2017-06-16T09:01:58.726Z,19.60
2017-06-16T09:03:00.162Z,19.51
2017-06-16T09:04:01.597Z,19.38
2017-06-16T09:05:03.033Z,19.47
2017-06-16T09:06:04.460Z,19.68
2017-06-16T09:07:05.899Z,19.79
2017-06-16T09:08:07.331Z,19.73
2017-06-16T09:09:08.761Z,19.72
2017-06-16T09:10:10.207Z,19.80
2017-06-16T09:11:11.640Z,19.61
2017-06-16T09:12:13.080Z,19.69
2017-06-16T09:13:14.516Z,19.60
2017-06-16T09:14:15.949Z,19.57
2017-06-16T09:15:17.383Z,19.28
2017-06-16T09:16:18.807Z,19.13
2017-06-16T09:17:20.251Z,19.08
2017-06-16T09:18:22.349Z,19.06
2017-06-16T09:19:23.792Z,19.11
2017-06-16T09:20:25.245Z,19.28
2017-06-16T09:21:26.677Z,19.32
2017-06-16T09:22:28.126Z,19.24
2017-06-16T09:23:29.562Z,19.18
2017-06-16T09:24:30.992Z,19.21
2017-06-16T09:25:32.432Z,19.35
2017-06-16T09:26:33.873Z,19.42
2017-06-16T09:27:35.312Z,19.73
2017-06-16T09:28:36.746Z,19.87
2017-06-16T09:29:39.186Z,19.90
2017-06-16T09:30:40.624Z,19.97
2017-06-16T09:31:42.049Z,20.05
2017-06-16T09:32:43.485Z,19.76
2017-06-16T09:33:44.919Z,19.55
2017-06-16T09:34:46.352Z,19.53
2017-06-16T09:35:47.786Z,19.38
2017-06-16T09:36:49.218Z,19.24
2017-06-16T09:37:50.661Z,19.46
2017-06-16T09:38:52.118Z,19.32
2017-06-16T09:39:53.549Z,19.11
2017-06-16T09:40:54.976Z,19.06
2017-06-16T09:41:56.412Z,19.18
2017-06-16T09:42:57.865Z,19.01
2017-06-16T09:43:59.307Z,19.02
2017-06-16T09:45:00.789Z,18.98
2017-06-16T09:46:02.218Z,19.14
2017-06-16T09:47:03.729Z,19.18
2017-06-16T09:48:05.129Z,19.18
2017-06-16T09:49:06.558Z,19.17
2017-06-16T09:50:08.001Z,18.98
2017-06-16T09:51:09.429Z,19.08
2017-06-16T09:52:10.863Z,19.08
2017-06-16T09:53:12.284Z,18.83
2017-06-16T09:54:13.753Z,18.94
2017-06-16T09:55:15.191Z,19.01
2017-06-16T09:56:16.619Z,19.10
2017-06-16T09:57:18.063Z,19.31
2017-06-16T09:58:19.489Z,19.42
2017-06-16T09:59:20.941Z,19.42
2017-06-16T10:00:22.364Z,19.46
2017-06-16T10:01:23.921Z,19.69
2017-06-16T10:02:25.350Z,19.86
2017-06-16T10:03:26.785Z,20.06
2017-06-16T10:04:28.213Z,19.93
2017-06-16T10:05:29.662Z,20.15
2017-06-16T10:06:31.181Z,20.24
2017-06-16T10:07:32.619Z,20.23
2017-06-16T10:08:34.053Z,20.28
2017-06-16T10:09:35.498Z,19.95
2017-06-16T10:10:36.927Z,19.95
2017-06-16T10:11:38.367Z,19.73
2017-06-16T10:12:39.810Z,19.75
2017-06-16T10:13:41.242Z,19.51
2017-06-16T10:14:42.680Z,19.54
2017-06-16T10:15:44.110Z,19.38
2017-06-16T10:16:45.557Z,19.32
2017-06-16T10:17:46.993Z,19.33
2017-06-16T10:18:49.291Z,19.18
2017-06-16T10:19:50.720Z,19.20
2017-06-16T10:20:52.167Z,19.11
2017-06-16T10:21:53.606Z,19.15
2017-06-16T10:22:55.044Z,19.28
2017-06-16T10:23:56.797Z,19.10
2017-06-16T10:24:58.477Z,19.20
2017-06-16T10:25:59.934Z,19.24
2017-06-16T10:27:01.371Z,19.11
2017-06-16T10:28:02.811Z,19.15
2017-06-16T10:29:04.250Z,19.25
2017-06-16T10:30:05.680Z,19.18
2017-06-16T10:31:07.112Z,19.21
2017-06-16T10:32:08.546Z,19.31
2017-06-16T10:33:09.984Z,19.32
2017-06-16T10:34:11.419Z,19.39
2017-06-16T10:35:12.842Z,19.46
2017-06-16T10:36:14.276Z,19.51
2017-06-16T10:37:15.713Z,19.42
2017-06-16T10:38:17.150Z,19.42
2017-06-16T10:39:18.583Z,19.31
2017-06-16T10:40:20.022Z,19.38
2017-06-16T10:41:21.447Z,19.32
2017-06-16T10:42:22.875Z,19.23
2017-06-16T10:43:24.311Z,19.05
2017-06-16T10:44:25.745Z,19.17
2017-06-16T10:45:27.178Z,19.18
2017-06-16T10:46:28.611Z,19.28
2017-06-16T10:47:30.041Z,19.20
2017-06-16T10:48:31.548Z,19.29
2017-06-16T10:49:32.994Z,19.43
2017-06-16T10:50:34.427Z,19.42
2017-06-16T10:51:35.855Z,19.35
2017-06-16T10:52:37.293Z,19.40
2017-06-16T10:53:38.728Z,19.42
2017-06-16T10:54:40.184Z,19.39
2017-06-16T10:55:41.692Z,19.54
2017-06-16T10:56:43.115Z,19.51
2017-06-16T10:57:44.564Z,19.42
2017-06-16T10:58:46.000Z,19.17
2017-06-16T10:59:47.433Z,19.17
2017-06-16T11:00:48.868Z,19.15
2017-06-16T11:01:50.306Z,19.17
2017-06-16T11:02:51.739Z,19.23
2017-06-16T11:03:53.180Z,19.20
2017-06-16T11:04:54.633Z,19.35
2017-06-16T11:05:56.062Z,19.18
2017-06-16T11:06:57.486Z,19.25
2017-06-16T11:07:58.921Z,19.17
2017-06-16T11:09:00.359Z,19.18
2017-06-16T11:10:01.788Z,19.35
2017-06-16T11:11:03.225Z,19.39
2017-06-16T11:12:04.654Z,19.43
2017-06-16T11:13:06.086Z,19.53
2017-06-16T11:14:07.538Z,19.53
2017-06-16T11:15:08.968Z,19.60
2017-06-16T11:16:10.402Z,19.75
2017-06-16T11:17:11.831Z,19.66
2017-06-16T11:18:13.262Z,19.57
2017-06-16T11:19:14.702Z,19.63
2017-06-16T11:20:16.133Z,19.61
2017-06-16T11:21:17.585Z,19.70
2017-06-16T11:22:19.017Z,19.97
2017-06-16T11:23:20.447Z,19.94
2017-06-16T11:24:21.877Z,19.88
2017-06-16T11:25:23.314Z,19.70
2017-06-16T11:26:24.762Z,19.69
2017-06-16T11:27:26.206Z,19.69
2017-06-16T11:28:27.636Z,19.60
2017-06-16T11:29:29.066Z,19.53
2017-06-16T11:30:30.503Z,19.40
2017-06-16T11:31:31.968Z,19.54
2017-06-16T11:32:33.403Z,19.51
2017-06-16T11:33:34.835Z,19.66
2017-06-16T11:34:36.260Z,19.63
2017-06-16T11:35:37.708Z,19.51
2017-06-16T11:36:39.140Z,19.25
2017-06-16T11:37:40.573Z,19.33
2017-06-16T11:38:42.022Z,19.38
2017-06-16T11:39:43.461Z,19.66
2017-06-16T11:40:44.899Z,19.79
2017-06-16T11:41:46.333Z,19.90
2017-06-16T11:42:47.860Z,19.94
2017-06-16T11:43:49.311Z,19.86
2017-06-16T11:44:50.752Z,19.79
2017-06-16T11:45:52.185Z,19.76
2017-06-16T11:46:53.622Z,19.84
2017-06-16T11:47:55.053Z,19.70
2017-06-16T11:48:56.499Z,19.50
2017-06-16T11:49:57.938Z,19.39
2017-06-16T11:50:59.376Z,19.46
2017-06-16T11:52:00.807Z,19.36
2017-06-16T11:53:02.243Z,19.18
2017-06-16T11:54:03.842Z,19.17
2017-06-16T11:55:05.276Z,19.40
2017-06-16T11:56:06.715Z,19.48
2017-06-16T11:57:09.075Z,19.53
2017-06-16T11:58:10.508Z,19.55
2017-06-16T11:59:11.947Z,19.66
2017-06-16T12:00:13.389Z,19.91
2017-06-16T12:01:14.836Z,20.06
2017-06-16T12:02:16.260Z,19.90
2017-06-16T12:03:17.702Z,19.79
2017-06-16T12:04:19.125Z,19.79
2017-06-16T12:05:20.564Z,19.69
2017-06-16T12:06:22.028Z,19.58
2017-06-16T12:07:23.462Z,19.57
2017-06-16T12:08:24.885Z,19.46
2017-06-16T12:09:26.322Z,19.55
2017-06-16T12:10:27.764Z,19.24
2017-06-16T12:11:29.200Z,19.31
2017-06-16T12:12:30.629Z,19.39
2017-06-16T12:13:32.063Z,19.48
2017-06-16T12:14:33.495Z,19.43
2017-06-16T12:15:34.935Z,19.75
2017-06-16T12:16:36.378Z,19.91
2017-06-16T12:17:37.824Z,19.84
2017-06-16T12:18:39.267Z,19.75
2017-06-16T12:19:41.564Z,19.84
2017-06-16T12:20:42.972Z,19.54
2017-06-16T12:21:44.397Z,19.57
2017-06-16T12:22:45.828Z,19.40
2017-06-16T12:23:47.258Z,19.43
2017-06-16T12:24:48.699Z,19.53
2017-06-16T12:25:50.134Z,19.42
2017-06-16T12:26:51.573Z,19.39
2017-06-16T12:27:53.012Z,19.35
2017-06-16T12:28:54.439Z,19.46
2017-06-16T12:29:55.883Z,19.39
2017-06-16T12:30:57.326Z,19.50
2017-06-16T12:31:58.760Z,19.46
2017-06-16T12:33:00.205Z,19.39
2017-06-16T12:34:01.639Z,19.36
2017-06-16T12:35:03.083Z,19.43
2017-06-16T12:36:04.521Z,19.53
2017-06-16T12:37:05.955Z,19.54
2017-06-16T12:38:07.404Z,19.61
2017-06-16T12:39:08.845Z,19.86
2017-06-16T12:40:10.277Z,20.03
2017-06-16T12:41:11.718Z,20.71
2017-06-16T12:42:13.159Z,20.87
2017-06-16T12:43:14.588Z,21.35
2017-06-16T12:44:16.027Z,21.41
2017-06-16T12:45:17.464Z,21.01
2017-06-16T12:46:18.899Z,20.72
2017-06-16T12:47:20.330Z,20.51
2017-06-16T12:48:21.768Z,20.18
2017-06-16T12:49:23.204Z,20.08
2017-06-16T12:50:24.642Z,20.24
2017-06-16T12:51:26.072Z,20.15
2017-06-16T12:52:27.523Z,20.27
2017-06-16T12:53:28.960Z,20.06
2017-06-16T12:54:30.391Z,20.15
2017-06-16T12:55:31.828Z,20.13
2017-06-16T12:56:33.278Z,19.95
2017-06-16T12:57:34.690Z,19.83
2017-06-16T12:58:36.123Z,19.70
2017-06-16T12:59:37.567Z,19.75
2017-06-16T13:00:39.003Z,19.70
2017-06-16T13:01:40.433Z,19.47
2017-06-16T13:02:41.861Z,19.47
2017-06-16T13:03:43.292Z,19.43
2017-06-16T13:04:44.726Z,19.36
2017-06-16T13:05:46.167Z,19.38
2017-06-16T13:06:47.607Z,19.33
2017-06-16T13:07:49.035Z,19.40
